Observations for RONCHI LEGIONARI AB, Italy (LIPQ)

LIPQ 191950Z VRB02KT 9999 FEW020 SCT060 17/16 Q1017 
LIPQ 191920Z 10003KT 9999 SCT070 17/16 Q1017
LIPQ 191850Z 07003KT 9999 BKN070 18/17 Q1017
LIPQ 191820Z 21002KT 9999 BKN070 18/16 Q1017
LIPQ 191750Z 25004KT 9999 BKN070 18/16 Q1017
LIPQ 191720Z 23003KT 9999 BKN077 19/17 Q1017
LIPQ 191650Z 21003KT 180V250 9999 BKN070 19/17 Q1016
LIPQ 191620Z 20004KT 9999 BKN070 19/17 Q1016
LIPQ 191550Z 22005KT 180V240 9999 SCT060 19/16 Q1016
LIPQ 191520Z 20007KT 9999 FEW080 20/16 Q1016
LIPQ 191450Z 21010KT 9999 FEW020 SCT080 20/16 Q1016 
LIPQ 191420Z 20007KT 170V240 9999 FEW020 21/16 Q1016
LIPQ 191350Z 21010KT 9999 FEW020 21/16 Q1016
LIPQ 191320Z 21009KT 9999 SCT020 21/18 Q1016
LIPQ 191250Z 21011KT 180V240 9999 SCT020 21/17 Q1016
LIPQ 191220Z 20010KT 170V230 9999 BKN025 21/18 Q1016
LIPQ 191150Z VRB02KT 9999 BKN020 18/17 Q1016
LIPQ 191120Z VRB04KT 9999 -RA BKN020 BKN060 17/17 Q1016 RERA
LIPQ 191050Z VRB02KT 9000 RA SCT015 BKN050 17/17 Q1016  
LIPQ 191020Z 34004KT 300V050 8000 RA BKN015 BKN050 17/17 Q1017  
LIPQ 190950Z VRB02KT 8000 RA SCT020 BKN050 17/17 Q1017  
LIPQ 190920Z VRB02KT 9000 -RA SCT015 BKN060 18/16 Q1017 
LIPQ 190850Z VRB02KT 9000 -RA SCT015 BKN060 18/16 Q1017 
LIPQ 190820Z 14003KT 100V270 9999 SCT015 BKN070 17/15 Q1016 
LIPQ 190750Z 12004KT 9999 SCT040 BKN070 17/15 Q1016 
LIPQ 190720Z 10006KT 9999 FEW040 BKN070 17/14 Q1016 
LIPQ 190650Z 10005KT 9999 FEW020 BKN040 17/14 Q1016 
LIPQ 190620Z 11006KT 9999 FEW020 SCT050 16/14 Q1016 
LIPQ 190550Z 10005KT 9999 SCT015 SCT060 16/14 Q1016 
LIPQ 190520Z 09004KT 9999 FEW015 BKN070 16/14 Q1016 
LIPQ 190450Z 09005KT 9999 SCT015 BKN070 16/14 Q1016 
LIPQ 190420Z 08003KT 9999 FEW015 BKN070 16/14 Q1016 
LIPQ 190350Z AUTO 12004KT 9999 FEW018/// OVC067/// 16/14 Q1016  
LIPQ 190350Z AUTO 12004KT 9999 FEW018 OVC067 16/14 Q1016
LIPQ 190320Z AUTO 11006KT 9999 OVC048/// 16/14 Q1016
LIPQ 190320Z AUTO 11006KT 9999 OVC048 16/14 Q1016
LIPQ 190250Z AUTO 14004KT 9999 OVC050/// 17/15 Q1016
LIPQ 190250Z AUTO 14004KT 9999 OVC050 17/15 Q1016
LIPQ 190220Z AUTO 14005KT 9999 OVC059/// 17/14 Q1016
LIPQ 190220Z AUTO 14005KT 9999 OVC059 17/14 Q1016
LIPQ 190150Z AUTO 14005KT 9999 OVC060/// 17/14 Q1017
LIPQ 190150Z AUTO 14005KT 9999 OVC060 17/14 Q1017
LIPQ 190120Z AUTO 14005KT 9999 FEW021/// OVC059/// 17/15 Q1017  
LIPQ 190120Z AUTO 14005KT 9999 FEW021 OVC059 17/15 Q1017
LIPQ 190050Z AUTO 13004KT 9999 FEW022/// OVC059/// 16/15 Q1017  
LIPQ 190050Z AUTO 13004KT 9999 FEW022 OVC059 16/15 Q1017
LIPQ 190020Z AUTO 12003KT 9999 FEW022/// OVC058/// 16/15 Q1017  
LIPQ 190020Z AUTO 12003KT 9999 FEW022 OVC058 16/15 Q1017
LIPQ 182350Z AUTO 14005KT 9999 SCT021/// BKN031/// OVC058/// 16/15 Q1017
LIPQ 182350Z AUTO 14005KT 9999 SCT021 BKN031 OVC058 16/15 Q1017
LIPQ 182320Z AUTO 12003KT 9999 BKN028/// OVC100/// 16/15 Q1017  
LIPQ 182320Z AUTO 12003KT 9999 BKN028 OVC100 16/15 Q1017
LIPQ 182250Z AUTO VRB02KT 9999 OVC025/// 16/15 Q1017
LIPQ 182250Z AUTO VRB02KT 9999 OVC025 16/15 Q1017
LIPQ 182220Z AUTO 10004KT 9999 BKN024/// 15/15 Q1017
LIPQ 182220Z AUTO 10004KT 9999 BKN024 15/15 Q1017
LIPQ 182150Z 10002KT 9999 SCT025 15/14 Q1017
LIPQ 182120Z 11006KT 9999 FEW025 15/14 Q1017
LIPQ 182050Z 10005KT 9999 SCT035 15/13 Q1017
LIPQ 182020Z 12003KT 9999 SCT035 16/14 Q1017
LIPQ 181950Z 11004KT 9000 BKN035 16/15 Q1017
LIPQ 181920Z 09003KT 9000 BKN035 16/15 Q1017